Time;durP1;ratioP1;P1;durP2;ratioP2;P2;SDS_P1;SDS_P2;PMS_P1;PMS_P2;Temp;Humidity;BMP_temperature;BMP_pressure;BME280_temperature;BME280_humidity;BME280_pressure;Samples;Min_cycle;Max_cycle;Signal;HPM_P1;HPM_P2
2021/11/03 00:01:05;;;;;;;20.90;12.27;;;6.60;92.10;;;;;;5075892;28;20029;-48
2021/11/03 00:03:33;;;;;;;26.90;11.82;;;6.60;92.00;;;;;;5075670;28;20042;-47
2021/11/03 00:05:59;;;;;;;19.15;11.50;;;6.60;92.00;;;;;;5075270;28;20058;-46
2021/11/03 00:08:28;;;;;;;17.45;10.73;;;6.60;91.90;;;;;;5075141;28;20017;-45
2021/11/03 00:10:55;;;;;;;21.08;12.27;;;6.50;91.80;;;;;;5075511;28;20028;-46
2021/11/03 00:13:23;;;;;;;19.10;11.57;;;6.60;91.80;;;;;;5075199;28;20035;-47
2021/11/03 00:15:49;;;;;;;23.05;12.52;;;6.60;91.70;;;;;;5073848;28;20054;-48
2021/11/03 00:18:15;;;;;;;21.15;12.02;;;6.50;91.60;;;;;;5075332;28;20036;-45
2021/11/03 00:20:41;;;;;;;22.60;13.15;;;6.50;91.70;;;;;;5075090;28;20028;-46
2021/11/03 00:23:08;;;;;;;21.83;12.90;;;6.60;91.70;;;;;;5074975;28;20028;-45
2021/11/03 00:25:37;;;;;;;23.25;12.75;;;6.50;91.40;;;;;;5074836;28;20024;-46
2021/11/03 00:28:04;;;;;;;18.95;12.15;;;6.40;91.50;;;;;;5075564;28;20108;-46
2021/11/03 00:30:29;;;;;;;16.85;11.25;;;6.20;91.50;;;;;;5075095;28;20403;-46
2021/11/03 00:32:55;;;;;;;17.90;11.68;;;6.20;91.70;;;;;;5074927;28;20024;-47
2021/11/03 00:35:21;;;;;;;18.08;11.35;;;6.20;91.90;;;;;;5075044;28;20028;-46
2021/11/03 00:37:46;;;;;;;21.63;11.48;;;6.20;92.10;;;;;;5075025;28;20039;-51
2021/11/03 00:40:13;;;;;;;22.58;11.80;;;6.10;92.10;;;;;;5075135;28;20025;-50
2021/11/03 00:42:39;;;;;;;18.30;12.18;;;6.10;92.20;;;;;;5074712;28;20024;-45
2021/11/03 00:45:06;;;;;;;21.15;13.73;;;6.00;92.20;;;;;;5074626;28;20035;-47
2021/11/03 00:47:31;;;;;;;20.17;11.85;;;6.00;92.10;;;;;;5074828;28;20035;-47
2021/11/03 00:49:57;;;;;;;23.75;12.68;;;6.00;92.10;;;;;;5074435;28;20397;-48
2021/11/03 00:52:23;;;;;;;22.50;13.05;;;5.90;92.10;;;;;;5074711;28;20020;-49
2021/11/03 00:54:48;;;;;;;20.55;11.57;;;5.90;92.20;;;;;;5074418;28;20070;-46
2021/11/03 00:57:14;;;;;;;24.13;12.65;;;5.80;92.20;;;;;;5074626;28;20151;-50
2021/11/03 00:59:40;;;;;;;23.63;13.23;;;5.80;92.10;;;;;;5073014;28;20032;-47
2021/11/03 01:02:06;;;;;;;23.95;14.15;;;5.70;92.00;;;;;;5073022;28;20426;-49
2021/11/03 01:04:32;;;;;;;21.55;12.80;;;5.60;92.00;;;;;;5074213;28;20038;-46
2021/11/03 01:06:57;;;;;;;21.10;12.45;;;5.60;92.00;;;;;;5074821;28;20159;-50
2021/11/03 01:09:23;;;;;;;22.20;11.75;;;5.50;92.00;;;;;;5074211;28;20055;-47
2021/11/03 01:11:49;;;;;;;20.50;12.35;;;5.50;92.00;;;;;;5073554;28;20021;-46
2021/11/03 01:14:16;;;;;;;21.65;12.73;;;5.40;92.20;;;;;;5074273;28;20461;-46
2021/11/03 01:16:41;;;;;;;19.17;12.27;;;5.40;92.20;;;;;;5073990;28;20051;-47
2021/11/03 01:19:07;;;;;;;21.42;12.25;;;5.40;92.20;;;;;;5073717;28;20144;-46
2021/11/03 01:21:36;;;;;;;26.98;13.32;;;5.40;92.30;;;;;;5073645;28;20366;-53
2021/11/03 01:24:02;;;;;;;20.98;11.68;;;5.40;92.30;;;;;;5073542;28;20020;-46
2021/11/03 01:26:28;;;;;;;22.50;12.95;;;5.40;92.20;;;;;;5073521;28;20391;-46
2021/11/03 01:28:54;;;;;;;24.17;11.75;;;5.40;92.20;;;;;;5073792;28;20119;-46
2021/11/03 01:31:19;;;;;;;22.35;12.02;;;5.30;92.10;;;;;;5073629;28;20021;-47
2021/11/03 01:33:45;;;;;;;21.90;11.75;;;5.30;92.10;;;;;;5073514;28;20104;-47
2021/11/03 01:36:12;;;;;;;20.75;12.20;;;5.30;92.10;;;;;;5073712;28;20082;-46
2021/11/03 01:38:38;;;;;;;22.88;13.07;;;5.30;92.10;;;;;;5073467;28;20055;-47
2021/11/03 01:41:04;;;;;;;21.42;11.43;;;5.30;92.20;;;;;;5073632;28;20052;-47
2021/11/03 01:43:36;;;;;;;21.85;12.25;;;5.30;92.20;;;;;;5073317;28;20025;-48
2021/11/03 01:46:20;;;;;;;22.50;12.85;;;5.30;92.30;;;;;;5072037;28;20472;-47
2021/11/03 01:48:47;;;;;;;28.08;12.07;;;5.20;92.20;;;;;;5073330;28;20024;-48
2021/11/03 01:51:25;;;;;;;19.98;11.88;;;5.20;92.10;;;;;;5073384;28;20099;-47
2021/11/03 01:53:51;;;;;;;24.83;13.50;;;5.10;92.10;;;;;;5072289;28;20032;-48
2021/11/03 01:56:18;;;;;;;20.92;12.35;;;5.10;92.20;;;;;;5073220;28;20381;-37
2021/11/03 01:58:52;;;;;;;21.25;12.32;;;5.00;92.30;;;;;;5073165;28;20029;-37
2021/11/03 02:01:19;;;;;;;20.48;12.45;;;5.10;92.40;;;;;;5072760;28;20427;-37
2021/11/03 02:03:46;;;;;;;22.30;12.18;;;5.00;92.50;;;;;;5072836;28;20028;-37
2021/11/03 02:06:18;;;;;;;19.20;12.95;;;5.00;92.50;;;;;;5072734;28;20127;-38
2021/11/03 02:08:45;;;;;;;24.63;13.82;;;5.10;92.60;;;;;;5071287;28;20119;-38
2021/11/03 02:11:11;;;;;;;21.90;11.63;;;5.10;92.70;;;;;;5071699;28;20024;-38
2021/11/03 02:13:39;;;;;;;23.63;13.50;;;5.10;92.60;;;;;;5072471;28;20134;-38
2021/11/03 02:16:08;;;;;;;22.40;12.32;;;5.00;92.60;;;;;;5072617;28;20055;-37
2021/11/03 02:18:35;;;;;;;23.05;13.75;;;5.00;92.60;;;;;;5072389;28;20028;-38
2021/11/03 02:21:02;;;;;;;28.77;13.55;;;5.00;92.50;;;;;;5072556;28;20064;-38
2021/11/03 02:23:39;;;;;;;23.35;12.43;;;4.90;92.40;;;;;;5071792;28;20132;-38
2021/11/03 02:26:26;;;;;;;24.92;13.30;;;4.80;92.30;;;;;;5072842;28;20447;-38
2021/11/03 02:28:53;;;;;;;20.10;12.20;;;4.80;92.30;;;;;;5072628;28;20052;-38
2021/11/03 02:31:41;;;;;;;20.88;11.30;;;4.80;92.30;;;;;;5071651;28;20371;-36
2021/11/03 02:34:16;;;;;;;20.98;12.65;;;4.80;92.30;;;;;;5072744;28;20016;-37
2021/11/03 02:36:57;;;;;;;20.05;12.00;;;4.80;92.40;;;;;;5071199;28;20392;-36
2021/11/03 02:39:40;;;;;;;23.98;12.15;;;4.80;92.30;;;;;;5072452;28;20024;-38
2021/11/03 02:42:08;;;;;;;21.73;11.32;;;4.80;92.30;;;;;;5072702;28;20111;-36
2021/11/03 02:44:37;;;;;;;21.92;11.52;;;4.80;92.10;;;;;;5072702;28;20032;-37
2021/11/03 02:47:04;;;;;;;20.25;12.20;;;4.80;92.10;;;;;;5072404;28;20029;-37
2021/11/03 02:49:31;;;;;;;23.85;12.82;;;4.80;92.10;;;;;;5072282;28;20035;-36
2021/11/03 02:51:57;;;;;;;22.40;12.55;;;4.80;92.10;;;;;;5072400;28;20056;-36
2021/11/03 02:54:23;;;;;;;20.95;11.95;;;4.70;91.90;;;;;;5072386;28;20025;-36
2021/11/03 02:56:53;;;;;;;22.02;13.05;;;4.60;91.80;;;;;;5072345;28;20025;-36
2021/11/03 02:59:23;;;;;;;19.58;11.77;;;4.60;91.80;;;;;;5072620;28;20095;-36
2021/11/03 03:01:54;;;;;;;25.77;11.88;;;4.60;91.80;;;;;;5072335;28;20033;-36
2021/11/03 03:04:28;;;;;;;24.67;12.18;;;4.70;91.90;;;;;;5072585;28;20074;-36
2021/11/03 03:06:54;;;;;;;23.05;13.20;;;4.70;92.10;;;;;;5072155;28;20053;-41
2021/11/03 03:09:21;;;;;;;22.52;12.32;;;4.80;92.20;;;;;;5072344;28;20085;-36
2021/11/03 03:11:50;;;;;;;24.13;13.05;;;4.80;92.20;;;;;;5070937;28;20039;-38
2021/11/03 03:14:17;;;;;;;25.40;13.38;;;4.80;92.30;;;;;;5072529;28;20067;-37
2021/11/03 03:16:43;;;;;;;24.20;12.70;;;4.80;92.40;;;;;;5072165;28;20070;-37
2021/11/03 03:19:10;;;;;;;19.23;11.80;;;4.80;92.40;;;;;;5072576;28;20035;-37
2021/11/03 03:21:36;;;;;;;22.33;13.55;;;4.80;92.30;;;;;;5072450;28;20043;-37
2021/11/03 03:24:06;;;;;;;21.88;13.15;;;4.80;92.40;;;;;;5072205;28;20029;-37
2021/11/03 03:26:32;;;;;;;19.60;11.55;;;4.80;92.40;;;;;;5071022;28;20032;-37
2021/11/03 03:28:58;;;;;;;32.63;14.07;;;4.80;92.40;;;;;;5071930;28;20082;-37
2021/11/03 03:31:25;;;;;;;18.33;11.82;;;4.70;92.40;;;;;;5072021;28;20025;-37
2021/11/03 03:33:53;;;;;;;24.33;11.60;;;4.70;92.40;;;;;;5072801;28;20024;-37
2021/11/03 03:36:20;;;;;;;18.65;11.50;;;4.60;92.20;;;;;;5075793;28;20492;-37
2021/11/03 03:38:46;;;;;;;22.48;11.07;;;4.60;92.10;;;;;;5076022;28;20177;-38
2021/11/03 03:41:13;;;;;;;19.15;11.65;;;4.60;92.20;;;;;;5075933;28;20112;-37
2021/11/03 03:43:39;;;;;;;21.38;11.43;;;4.50;92.20;;;;;;5075595;28;20029;-37
2021/11/03 03:46:05;;;;;;;22.80;11.13;;;4.50;92.20;;;;;;5075642;28;20077;-37
2021/11/03 03:48:30;;;;;;;23.25;12.13;;;4.50;92.10;;;;;;5075636;28;20029;-40
2021/11/03 03:50:56;;;;;;;20.88;11.07;;;4.50;92.10;;;;;;5074323;28;20054;-39
2021/11/03 03:53:22;;;;;;;22.77;12.27;;;4.50;92.10;;;;;;5076100;28;20020;-39
2021/11/03 03:55:49;;;;;;;24.48;11.35;;;4.60;92.10;;;;;;5075545;28;20491;-38
2021/11/03 03:58:17;;;;;;;20.58;12.13;;;4.60;92.00;;;;;;5075490;28;20028;-37
2021/11/03 04:00:45;;;;;;;25.80;12.82;;;4.60;91.90;;;;;;5075379;28;20024;-39
2021/11/03 04:03:11;;;;;;;21.17;12.25;;;4.60;91.80;;;;;;5075686;28;20101;-39
2021/11/03 04:05:36;;;;;;;17.35;10.73;;;4.70;91.60;;;;;;5075388;28;20554;-38
2021/11/03 04:08:02;;;;;;;19.00;10.23;;;4.70;91.60;;;;;;5075225;28;20017;-38
2021/11/03 04:10:28;;;;;;;24.50;11.73;;;4.60;91.50;;;;;;5075449;28;20024;-36
2021/11/03 04:12:54;;;;;;;19.17;11.50;;;4.70;91.60;;;;;;5073963;28;20047;-39
2021/11/03 04:15:20;;;;;;;21.95;12.27;;;4.70;91.60;;;;;;5073848;28;20021;-39
2021/11/03 04:17:46;;;;;;;20.45;11.73;;;4.70;91.40;;;;;;5075167;28;20075;-39
2021/11/03 04:20:14;;;;;;;23.80;13.63;;;4.80;91.40;;;;;;5075402;28;20461;-38
2021/11/03 04:22:40;;;;;;;20.98;12.50;;;4.80;91.40;;;;;;5075309;28;20108;-38
2021/11/03 04:25:07;;;;;;;18.65;11.57;;;4.80;91.30;;;;;;5075098;28;20059;-39
2021/11/03 04:27:33;;;;;;;19.23;11.15;;;4.80;91.30;;;;;;5075018;28;20032;-40
2021/11/03 04:29:59;;;;;;;19.15;11.90;;;4.80;91.20;;;;;;5074719;28;20461;-38
2021/11/03 04:32:25;;;;;;;18.35;11.23;;;4.80;91.20;;;;;;5056953;28;20024;-39
2021/11/03 04:34:51;;;;;;;20.20;11.18;;;4.80;91.10;;;;;;5075539;28;20021;-39
2021/11/03 04:37:17;;;;;;;18.83;11.25;;;4.80;91.10;;;;;;5074755;28;20032;-39
2021/11/03 04:39:42;;;;;;;20.35;12.98;;;4.80;91.10;;;;;;5075020;28;20100;-38
2021/11/03 04:42:08;;;;;;;19.77;11.50;;;4.80;91.10;;;;;;5074736;28;20638;-37
2021/11/03 04:44:34;;;;;;;23.88;13.40;;;4.80;91.10;;;;;;5074960;28;20059;-37
2021/11/03 04:47:00;;;;;;;20.90;12.68;;;4.80;91.10;;;;;;5073980;28;20025;-38
2021/11/03 04:49:26;;;;;;;21.33;12.10;;;4.80;91.20;;;;;;5074700;28;20136;-37
2021/11/03 04:51:51;;;;;;;21.13;12.38;;;4.90;91.10;;;;;;5074603;28;20487;-37
2021/11/03 04:54:17;;;;;;;21.75;12.27;;;4.90;90.90;;;;;;5074350;28;20021;-38
2021/11/03 04:56:43;;;;;;;21.70;12.77;;;4.90;91.00;;;;;;5074224;28;20032;-37
2021/11/03 04:59:09;;;;;;;21.83;11.93;;;5.00;91.00;;;;;;5074683;28;20035;-37
2021/11/03 05:01:35;;;;;;;20.55;11.95;;;5.00;90.90;;;;;;5073079;28;20381;-37
2021/11/03 05:04:01;;;;;;;23.42;12.85;;;5.00;90.90;;;;;;5074162;28;20051;-37
2021/11/03 05:06:30;;;;;;;18.50;11.52;;;5.10;91.00;;;;;;5072651;28;20063;-37
2021/11/03 05:08:56;;;;;;;26.33;14.27;;;5.10;90.90;;;;;;5073941;28;20021;-38
2021/11/03 05:11:22;;;;;;;21.67;12.00;;;5.10;90.80;;;;;;5056109;28;20073;-38
2021/11/03 05:13:48;;;;;;;21.13;11.57;;;5.20;90.80;;;;;;5073949;28;20537;-37
2021/11/03 05:16:17;;;;;;;22.08;12.05;;;5.20;90.70;;;;;;5074326;28;20095;-37
2021/11/03 05:18:42;;;;;;;20.02;12.27;;;5.20;90.60;;;;;;5074283;28;20028;-37
2021/11/03 05:21:08;;;;;;;21.10;12.32;;;5.30;90.60;;;;;;5073954;28;20029;-37
2021/11/03 05:23:34;;;;;;;21.15;11.70;;;5.20;90.60;;;;;;5073872;28;20032;-37
2021/11/03 05:25:59;;;;;;;18.92;11.38;;;5.20;90.50;;;;;;5073783;28;20059;-39
2021/11/03 05:28:26;;;;;;;21.92;13.85;;;5.30;90.60;;;;;;5073399;28;20037;-38
2021/11/03 05:30:51;;;;;;;20.30;12.45;;;5.30;90.60;;;;;;5074002;28;20051;-37
2021/11/03 05:33:17;;;;;;;21.50;12.05;;;5.30;90.50;;;;;;5073956;28;20017;-37
2021/11/03 05:35:43;;;;;;;19.13;12.38;;;5.30;90.50;;;;;;5073665;28;20052;-37
2021/11/03 05:38:10;;;;;;;18.83;11.65;;;5.30;90.40;;;;;;5073972;28;20028;-36
2021/11/03 05:40:36;;;;;;;18.40;11.57;;;5.30;90.30;;;;;;5073769;28;20372;-38
2021/11/03 05:43:02;;;;;;;24.98;13.38;;;5.30;89.90;;;;;;5073690;28;20021;-37
2021/11/03 05:45:29;;;;;;;21.77;11.82;;;5.30;90.00;;;;;;5072134;28;20028;-37
2021/11/03 05:47:55;;;;;;;21.02;13.00;;;5.20;90.20;;;;;;5073394;28;20063;-37
2021/11/03 05:50:27;;;;;;;23.13;11.38;;;5.20;90.30;;;;;;5073183;28;20028;-37
2021/11/03 05:52:54;;;;;;;23.52;11.85;;;5.20;90.50;;;;;;5073503;28;20086;-37
2021/11/03 05:55:20;;;;;;;25.42;11.95;;;5.10;90.60;;;;;;5073130;28;20380;-37
2021/11/03 05:57:47;;;;;;;23.48;12.43;;;5.10;90.70;;;;;;5073146;28;20159;-37
2021/11/03 06:00:20;;;;;;;20.58;13.00;;;5.20;90.80;;;;;;5071723;28;20025;-37
2021/11/03 06:02:46;;;;;;;23.20;12.40;;;5.20;91.00;;;;;;5073135;28;20431;-36
2021/11/03 06:05:14;;;;;;;20.30;12.35;;;5.20;90.90;;;;;;5072549;28;20036;-37
2021/11/03 06:07:39;;;;;;;25.33;12.60;;;5.20;91.00;;;;;;5072501;28;20411;-38
2021/11/03 06:10:07;;;;;;;18.27;11.98;;;5.30;91.10;;;;;;5072418;28;20028;-38
2021/11/03 06:12:32;;;;;;;22.27;12.55;;;5.30;91.00;;;;;;5072124;28;20023;-38
2021/11/03 06:14:58;;;;;;;22.50;13.15;;;5.30;91.10;;;;;;5071988;28;20020;-38
2021/11/03 06:17:24;;;;;;;23.98;11.65;;;5.40;90.90;;;;;;5072097;28;20029;-37
2021/11/03 06:19:49;;;;;;;24.08;13.40;;;5.40;90.50;;;;;;5072206;28;20030;-38
2021/11/03 06:22:15;;;;;;;21.50;12.18;;;5.40;90.30;;;;;;5072060;28;20489;-37
2021/11/03 06:24:42;;;;;;;21.05;11.77;;;5.40;90.40;;;;;;5072233;28;20064;-37
2021/11/03 06:27:08;;;;;;;20.00;12.63;;;5.50;89.90;;;;;;5070712;28;20412;-37
2021/11/03 06:29:34;;;;;;;20.05;11.60;;;5.40;89.90;;;;;;5071937;28;20035;-36
2021/11/03 06:31:59;;;;;;;21.63;11.50;;;5.30;90.20;;;;;;5072138;28;20031;-37
2021/11/03 06:34:25;;;;;;;21.30;12.10;;;5.30;90.50;;;;;;5071657;28;20025;-37
2021/11/03 06:36:51;;;;;;;21.60;12.13;;;5.50;90.60;;;;;;5071910;28;20158;-37
2021/11/03 06:39:16;;;;;;;23.95;13.07;;;5.60;90.20;;;;;;5071821;28;20032;-37
2021/11/03 06:41:43;;;;;;;24.02;14.68;;;5.50;89.80;;;;;;5071756;28;20047;-37
2021/11/03 06:44:09;;;;;;;26.17;13.60;;;5.60;89.90;;;;;;5071685;28;20130;-37
2021/11/03 06:46:34;;;;;;;22.88;12.93;;;5.60;89.90;;;;;;5071418;28;20032;-36
2021/11/03 06:49:01;;;;;;;28.10;14.20;;;5.60;89.80;;;;;;5071606;28;20086;-37
2021/11/03 06:51:26;;;;;;;28.40;15.00;;;5.50;89.90;;;;;;5071383;28;20066;-37
2021/11/03 06:53:52;;;;;;;19.67;12.43;;;5.60;89.90;;;;;;5071652;28;20474;-37
2021/11/03 06:56:18;;;;;;;27.95;14.10;;;5.70;89.70;;;;;;5071841;28;20090;-37
2021/11/03 06:58:43;;;;;;;24.05;13.88;;;5.80;89.20;;;;;;5071577;28;20067;-37
2021/11/03 07:01:09;;;;;;;25.88;14.73;;;5.70;89.00;;;;;;5071590;28;20107;-37
2021/11/03 07:03:37;;;;;;;23.83;12.50;;;5.70;89.20;;;;;;5071738;28;20043;-37
2021/11/03 07:06:03;;;;;;;25.33;15.02;;;5.60;89.50;;;;;;5071470;28;20076;-38
2021/11/03 07:08:29;;;;;;;20.67;11.98;;;5.70;89.70;;;;;;5071588;28;20427;-38
2021/11/03 07:10:57;;;;;;;23.33;12.73;;;5.70;89.80;;;;;;5075676;28;20047;-37
2021/11/03 07:13:24;;;;;;;21.27;12.48;;;5.70;89.90;;;;;;5075487;28;20417;-37
2021/11/03 07:15:51;;;;;;;21.30;12.50;;;5.80;90.00;;;;;;5075141;28;20025;-37
2021/11/03 07:18:17;;;;;;;24.38;12.35;;;5.70;90.20;;;;;;5075154;28;20052;-37
2021/11/03 07:20:43;;;;;;;23.27;13.25;;;5.70;90.20;;;;;;5075212;28;20025;-37
2021/11/03 07:23:15;;;;;;;26.40;13.30;;;5.80;90.40;;;;;;5075627;28;20031;-38
2021/11/03 07:25:42;;;;;;;25.85;13.30;;;6.00;89.70;;;;;;5075059;28;20021;-37
2021/11/03 07:28:08;;;;;;;23.27;13.82;;;5.80;89.40;;;;;;5074092;28;20111;-37
2021/11/03 07:30:36;;;;;;;30.33;15.65;;;5.80;89.70;;;;;;5075482;28;20055;-37
2021/11/03 07:33:02;;;;;;;22.50;14.07;;;6.00;89.80;;;;;;5075223;28;20089;-37
2021/11/03 07:35:28;;;;;;;26.85;14.23;;;6.00;89.40;;;;;;5075314;28;20111;-37
2021/11/03 07:37:55;;;;;;;24.08;14.60;;;6.10;89.30;;;;;;5075210;28;20487;-37
2021/11/03 07:40:23;;;;;;;24.90;14.13;;;6.20;89.10;;;;;;5075291;28;20169;-39
2021/11/03 07:42:49;;;;;;;23.90;13.80;;;6.20;88.70;;;;;;5075229;28;20418;-38
2021/11/03 07:45:15;;;;;;;28.65;14.90;;;6.20;88.60;;;;;;5074959;28;20333;-39
2021/11/03 07:47:41;;;;;;;29.17;15.68;;;6.30;88.50;;;;;;5074835;28;20032;-36
2021/11/03 07:50:12;;;;;;;24.17;13.48;;;6.20;88.30;;;;;;5075310;28;20048;-37
2021/11/03 07:52:38;;;;;;;25.92;13.82;;;6.10;88.40;;;;;;5075662;28;20028;-40
2021/11/03 07:55:05;;;;;;;21.90;13.75;;;6.10;88.90;;;;;;5074950;28;20028;-37
2021/11/03 07:57:31;;;;;;;23.40;13.85;;;6.10;89.00;;;;;;5074673;28;20038;-37
2021/11/03 07:59:56;;;;;;;24.67;13.50;;;6.10;89.30;;;;;;5075525;28;20187;-38
2021/11/03 08:02:22;;;;;;;26.77;13.95;;;6.10;89.50;;;;;;5074565;28;20031;-38
2021/11/03 08:04:48;;;;;;;25.20;13.95;;;6.20;89.10;;;;;;5074893;28;20029;-39
2021/11/03 08:07:13;;;;;;;24.73;14.80;;;6.40;89.00;;;;;;5075474;28;20534;-38
2021/11/03 08:09:44;;;;;;;34.20;18.20;;;6.40;88.50;;;;;;5075185;28;20020;-38
2021/11/03 08:12:10;;;;;;;27.85;14.00;;;6.40;88.40;;;;;;5075607;28;20055;-39
2021/11/03 08:14:37;;;;;;;27.25;14.18;;;6.60;88.20;;;;;;5073584;28;20056;-37
2021/11/03 08:17:16;;;;;;;26.92;14.95;;;6.50;87.70;;;;;;5075055;28;20023;-39
2021/11/03 08:19:50;;;;;;;24.95;14.45;;;6.50;88.10;;;;;;5074101;28;20062;-39
2021/11/03 08:22:20;;;;;;;26.25;14.27;;;6.40;88.40;;;;;;5071768;28;20116;-37
2021/11/03 08:24:48;;;;;;;24.67;13.33;;;6.30;88.80;;;;;;5057144;28;20056;-38
2021/11/03 08:27:14;;;;;;;28.10;15.95;;;6.30;88.80;;;;;;5072682;28;20111;-37
2021/11/03 08:29:40;;;;;;;26.23;15.02;;;6.40;88.90;;;;;;5072854;28;20056;-38
2021/11/03 08:32:11;;;;;;;23.15;13.32;;;6.40;88.80;;;;;;5074622;28;20303;-38
2021/11/03 08:34:38;;;;;;;28.35;15.70;;;6.50;89.00;;;;;;5074590;28;20087;-38
2021/11/03 08:37:11;;;;;;;28.27;15.98;;;6.40;88.90;;;;;;5074330;28;20520;-39
2021/11/03 08:39:43;;;;;;;24.92;14.57;;;6.50;88.80;;;;;;5074383;28;20024;-38
2021/11/03 08:42:09;;;;;;;24.73;14.57;;;6.60;88.60;;;;;;5072417;28;20033;-37
2021/11/03 08:44:36;;;;;;;28.13;13.85;;;6.60;88.60;;;;;;5074239;28;20428;-39
2021/11/03 08:47:04;;;;;;;26.10;15.32;;;6.60;88.20;;;;;;5074648;28;20119;-39
2021/11/03 08:49:31;;;;;;;30.73;16.58;;;6.70;88.50;;;;;;5072135;28;20112;-37
2021/11/03 08:51:57;;;;;;;28.08;16.90;;;6.80;88.30;;;;;;5073991;28;20051;-37
2021/11/03 08:54:24;;;;;;;26.42;14.48;;;7.00;87.30;;;;;;5072283;28;20396;-37
2021/11/03 08:56:50;;;;;;;30.65;14.60;;;6.90;87.50;;;;;;5071882;28;20044;-36
2021/11/03 08:59:16;;;;;;;29.08;15.43;;;6.90;87.60;;;;;;5073716;28;20090;-37
2021/11/03 09:01:44;;;;;;;23.85;14.90;;;6.90;87.40;;;;;;5073430;28;20056;-37
2021/11/03 09:04:10;;;;;;;26.63;14.88;;;6.90;87.20;;;;;;5073489;28;20058;-38
2021/11/03 09:06:37;;;;;;;22.15;14.10;;;7.00;87.20;;;;;;5072884;28;20129;-41
2021/11/03 09:09:04;;;;;;;22.35;13.57;;;7.10;87.20;;;;;;5073058;28;20028;-38
2021/11/03 09:11:30;;;;;;;25.40;13.90;;;7.20;86.50;;;;;;5073285;28;20028;-38
2021/11/03 09:13:56;;;;;;;27.60;14.88;;;7.30;86.20;;;;;;5073219;28;20024;-37
2021/11/03 09:16:22;;;;;;;24.00;14.60;;;7.40;85.80;;;;;;5073360;28;20024;-37
2021/11/03 09:18:48;;;;;;;23.55;12.25;;;7.50;85.40;;;;;;5073681;28;20055;-37
2021/11/03 09:21:15;;;;;;;19.20;12.52;;;7.50;84.80;;;;;;5073424;28;20131;-37
2021/11/03 09:23:42;;;;;;;23.25;13.63;;;7.60;84.30;;;;;;5073394;28;20145;-38
2021/11/03 09:26:08;;;;;;;26.40;15.30;;;7.70;84.50;;;;;;5073062;28;20036;-38
2021/11/03 09:28:34;;;;;;;18.80;12.40;;;7.70;84.40;;;;;;5071344;28;20350;-38
2021/11/03 09:31:06;;;;;;;26.02;15.27;;;7.60;84.90;;;;;;5072913;28;20025;-38
2021/11/03 09:33:36;;;;;;;21.42;13.77;;;7.70;84.60;;;;;;5072438;28;20100;-37
2021/11/03 09:36:04;;;;;;;29.50;14.60;;;7.70;84.60;;;;;;5072676;28;20020;-37
2021/11/03 09:38:32;;;;;;;20.90;13.82;;;7.80;84.80;;;;;;5072791;28;20025;-37
2021/11/03 09:41:07;;;;;;;20.80;13.00;;;7.80;84.30;;;;;;5072620;28;20024;-37
2021/11/03 09:43:37;;;;;;;19.65;12.07;;;7.80;84.00;;;;;;5072776;28;20023;-38
2021/11/03 09:46:27;;;;;;;24.73;13.40;;;7.80;84.30;;;;;;5072694;28;20028;-38
2021/11/03 09:49:03;;;;;;;24.58;13.38;;;7.80;83.60;;;;;;5072695;28;20025;-37
2021/11/03 09:51:30;;;;;;;22.38;13.88;;;7.90;83.30;;;;;;5072400;28;20120;-38
2021/11/03 09:53:59;;;;;;;24.45;14.52;;;7.90;83.30;;;;;;5072182;28;20024;-37
2021/11/03 09:56:42;;;;;;;22.85;12.40;;;7.80;83.90;;;;;;5070793;28;20120;-38
2021/11/03 09:59:47;;;;;;;26.00;14.30;;;8.00;83.80;;;;;;5072223;28;20333;-38
2021/11/03 10:02:40;;;;;;;22.85;13.80;;;8.00;83.90;;;;;;5065238;28;20058;-38
2021/11/03 10:05:22;;;;;;;21.52;12.90;;;8.10;83.40;;;;;;5071591;28;20063;-39
2021/11/03 10:07:57;;;;;;;23.55;14.30;;;8.10;83.00;;;;;;5072588;28;20043;-37
2021/11/03 10:10:34;;;;;;;24.55;11.77;;;8.10;82.80;;;;;;5073136;28;20091;-38
2021/11/03 10:13:03;;;;;;;26.50;14.23;;;8.10;83.40;;;;;;5072260;28;20393;-38
2021/11/03 10:15:31;;;;;;;25.25;13.75;;;8.20;83.20;;;;;;5072689;28;20078;-39
2021/11/03 10:18:10;;;;;;;20.63;12.18;;;8.10;82.80;;;;;;5072189;28;20047;-38
2021/11/03 10:20:42;;;;;;;24.30;13.03;;;8.10;83.20;;;;;;5072529;28;20017;-38
2021/11/03 10:23:35;;;;;;;23.90;13.07;;;8.10;83.10;;;;;;5072096;28;20025;-38
2021/11/03 10:26:06;;;;;;;22.08;13.73;;;7.90;83.40;;;;;;5069950;28;20035;-39
2021/11/03 10:28:41;;;;;;;23.17;12.77;;;7.90;83.50;;;;;;5071832;28;20036;-38
2021/11/03 10:31:34;;;;;;;35.15;15.88;;;7.90;83.80;;;;;;5071943;28;20027;-38
2021/11/03 10:34:25;;;;;;;25.35;13.88;;;8.00;83.60;;;;;;5071650;28;20457;-39
2021/11/03 10:37:10;;;;;;;26.45;15.32;;;8.30;83.30;;;;;;5072037;28;20026;-38
2021/11/03 10:40:16;;;;;;;25.95;13.63;;;8.30;83.00;;;;;;5071997;28;20024;-39
2021/11/03 10:42:42;;;;;;;22.77;12.35;;;8.60;82.30;;;;;;5071967;28;20028;-38
2021/11/03 10:45:26;;;;;;;25.65;13.38;;;8.50;81.70;;;;;;5071170;28;20028;-37
2021/11/03 10:48:06;;;;;;;25.90;13.63;;;8.50;81.90;;;;;;5071570;28;20024;-39
2021/11/03 10:50:56;;;;;;;21.45;12.82;;;8.60;81.40;;;;;;5071863;28;20029;-39
2021/11/03 10:53:35;;;;;;;22.33;13.27;;;8.50;81.80;;;;;;5071684;28;20017;-37
2021/11/03 10:56:20;;;;;;;20.33;11.75;;;8.60;81.50;;;;;;5069936;28;20079;-37
2021/11/03 10:59:21;;;;;;;20.27;12.07;;;8.70;81.60;;;;;;5071781;28;20024;-37
2021/11/03 11:01:47;;;;;;;18.08;12.30;;;8.80;80.50;;;;;;5071742;28;20035;-37
2021/11/03 11:04:13;;;;;;;22.15;11.35;;;8.80;80.70;;;;;;5071894;28;20028;-38
2021/11/03 11:06:50;;;;;;;20.33;11.75;;;8.70;80.80;;;;;;5071243;28;20052;-37
2021/11/03 11:09:24;;;;;;;24.17;12.50;;;8.80;81.10;;;;;;5071215;28;20456;-38
2021/11/03 11:11:56;;;;;;;16.88;10.25;;;8.80;80.60;;;;;;5071300;28;20031;-37
2021/11/03 11:14:24;;;;;;;19.35;11.50;;;8.80;80.40;;;;;;5071137;28;20482;-37
2021/11/03 11:17:08;;;;;;;18.10;11.25;;;8.50;81.00;;;;;;5071537;28;20046;-40
2021/11/03 11:19:43;;;;;;;19.42;12.35;;;8.50;81.30;;;;;;5071226;28;20073;-37
2021/11/03 11:22:18;;;;;;;19.88;11.73;;;8.60;81.10;;;;;;5071949;28;20029;-41
2021/11/03 11:25:20;;;;;;;18.67;11.38;;;8.80;80.40;;;;;;5069812;28;20033;-36
2021/11/03 11:28:06;;;;;;;19.20;11.00;;;8.80;80.20;;;;;;5071388;28;20017;-37
2021/11/03 11:30:45;;;;;;;16.20;10.93;;;9.00;80.10;;;;;;5071600;28;20060;-36
2021/11/03 11:33:26;;;;;;;19.27;11.18;;;9.10;79.40;;;;;;5071480;28;20031;-38
2021/11/03 11:36:18;;;;;;;18.50;11.82;;;9.20;79.90;;;;;;5071635;28;20025;-37
2021/11/03 11:39:09;;;;;;;18.65;12.27;;;8.90;80.40;;;;;;5071909;28;20028;-37
2021/11/03 11:41:42;;;;;;;22.45;13.02;;;8.90;80.40;;;;;;5071792;28;20405;-37
2021/11/03 11:45:03;;;;;;;21.80;11.98;;;8.80;81.40;;;;;;5071904;28;20047;-38
2021/11/03 11:47:41;;;;;;;20.55;12.77;;;8.60;82.20;;;;;;5047114;28;20068;-42
2021/11/03 11:50:33;;;;;;;22.52;13.88;;;8.60;82.50;;;;;;5071527;28;20067;-37
2021/11/03 11:53:00;;;;;;;22.63;12.90;;;8.40;82.80;;;;;;5070894;28;20498;-37
2021/11/03 11:55:31;;;;;;;24.45;14.63;;;8.40;83.30;;;;;;5073210;28;20021;-37
2021/11/03 11:58:24;;;;;;;25.42;13.80;;;8.30;83.20;;;;;;5075145;28;20055;-37
2021/11/03 12:01:14;;;;;;;24.48;14.13;;;8.20;84.00;;;;;;5074158;28;20128;-37
2021/11/03 12:03:58;;;;;;;21.25;13.38;;;8.20;83.90;;;;;;5074873;28;20103;-38
2021/11/03 12:06:39;;;;;;;23.65;14.88;;;8.30;83.70;;;;;;5074604;28;20048;-39
2021/11/03 12:09:23;;;;;;;21.52;13.45;;;8.20;83.80;;;;;;5074740;28;20097;-38
2021/11/03 12:11:55;;;;;;;26.65;14.18;;;8.30;84.00;;;;;;5072986;28;20028;-39
2021/11/03 12:14:24;;;;;;;23.33;13.98;;;8.40;83.50;;;;;;5074720;28;20043;-38
2021/11/03 12:16:54;;;;;;;23.20;13.10;;;8.40;83.90;;;;;;5074503;28;20025;-38
2021/11/03 12:19:42;;;;;;;20.77;13.68;;;8.30;83.60;;;;;;5074974;28;20032;-37
2021/11/03 12:22:15;;;;;;;23.80;12.95;;;8.20;84.00;;;;;;5073067;28;20442;-38
2021/11/03 12:24:52;;;;;;;25.48;14.07;;;8.30;84.40;;;;;;5074608;28;20032;-38
2021/11/03 12:27:24;;;;;;;24.65;12.82;;;8.30;84.20;;;;;;5073053;28;20025;-39
2021/11/03 12:29:59;;;;;;;22.80;12.93;;;8.30;84.40;;;;;;5074645;28;20338;-38
2021/11/03 12:32:33;;;;;;;21.90;12.93;;;8.30;84.30;;;;;;5074683;28;20081;-44
2021/11/03 12:35:41;;;;;;;21.67;12.70;;;8.30;84.70;;;;;;5074496;28;20027;-37
2021/11/03 12:38:10;;;;;;;18.48;12.20;;;8.30;84.70;;;;;;5074303;28;20025;-39
2021/11/03 12:40:36;;;;;;;19.98;12.80;;;8.30;84.50;;;;;;5074439;28;20028;-38
2021/11/03 12:43:33;;;;;;;22.45;12.80;;;8.30;84.50;;;;;;5074240;28;20016;-37
2021/11/03 12:46:03;;;;;;;20.92;13.95;;;8.30;84.90;;;;;;5074123;28;20032;-38
2021/11/03 12:48:42;;;;;;;22.25;13.40;;;8.30;84.50;;;;;;5074351;28;20025;-39
2021/11/03 12:51:37;;;;;;;23.33;12.63;;;8.40;84.70;;;;;;5074010;28;20025;-38